Time;durP1;ratioP1;P1;durP2;ratioP2;P2;SDS_P1;SDS_P2;PMS_P1;PMS_P2;Temp;Humidity;BMP_temperature;BMP_pressure;BME280_temperature;BME280_humidity;BME280_pressure;Samples;Min_cycle;Max_cycle;Signal;HPM_P1;HPM_P2
2024/04/11 00:01:32;;;;;;;7.63;7.10;;;;;;;;;;5420410;26;21016;-84
2024/04/11 00:03:58;;;;;;;7.90;7.40;;;;;;;;;;5413487;26;20461;-84
2024/04/11 00:06:24;;;;;;;8.50;7.65;;;;;;;;;;5382483;26;20497;-85
2024/04/11 00:08:50;;;;;;;7.70;7.18;;;;;;;;;;5381737;26;20255;-84
2024/04/11 00:11:18;;;;;;;7.70;7.20;;;;;;;;;;5383594;26;20223;-84
2024/04/11 00:13:44;;;;;;;8.55;7.95;;;;;;;;;;5353142;26;20663;-84
2024/04/11 00:16:10;;;;;;;8.32;7.78;;;;;;;;;;5383806;26;20223;-84
2024/04/11 00:18:39;;;;;;;8.27;7.63;;;;;;;;;;5383019;26;20223;-84
2024/04/11 00:21:05;;;;;;;7.78;7.20;;;;;;;;;;5383560;26;20759;-84
2024/04/11 00:23:31;;;;;;;8.57;7.70;;;;;;;;;;5381271;26;20573;-84
2024/04/11 00:25:58;;;;;;;8.80;7.63;;;;;;;;;;5441132;26;20214;-84
2024/04/11 00:28:25;;;;;;;7.60;7.05;;;;;;;;;;5454141;26;20503;-84
2024/04/11 00:30:51;;;;;;;7.75;7.05;;;;;;;;;;5418517;26;20672;-85
2024/04/11 00:33:17;;;;;;;8.00;7.38;;;;;;;;;;5383355;26;20220;-84
2024/04/11 00:35:49;;;;;;;7.30;6.80;;;;;;;;;;5383106;26;20250;-84
2024/04/11 00:38:15;;;;;;;7.68;7.20;;;;;;;;;;5381719;26;21013;-84
2024/04/11 00:40:42;;;;;;;7.05;6.55;;;;;;;;;;5383120;26;20220;-84
2024/04/11 00:43:11;;;;;;;7.20;6.70;;;;;;;;;;5384499;26;20231;-84
2024/04/11 00:45:41;;;;;;;8.27;6.70;;;;;;;;;;5386237;26;20216;-83
2024/04/11 00:48:09;;;;;;;7.53;7.05;;;;;;;;;;5386402;26;20324;-84
2024/04/11 00:50:35;;;;;;;7.63;7.00;;;;;;;;;;5414322;26;20317;-84
2024/04/11 00:53:01;;;;;;;7.53;7.03;;;;;;;;;;5411794;26;20230;-84
2024/04/11 00:55:28;;;;;;;8.15;7.40;;;;;;;;;;5422159;26;20214;-84
2024/04/11 00:57:56;;;;;;;7.70;7.15;;;;;;;;;;5421791;26;20238;-84
2024/04/11 01:00:25;;;;;;;7.65;7.15;;;;;;;;;;5421260;26;20256;-87
2024/04/11 01:02:51;;;;;;;7.65;7.07;;;;;;;;;;5420063;26;20230;-84
2024/04/11 01:05:17;;;;;;;7.43;6.97;;;;;;;;;;5419625;26;20230;-83
2024/04/11 01:07:50;;;;;;;6.88;6.28;;;;;;;;;;5419656;26;20275;-84
2024/04/11 01:10:17;;;;;;;7.30;6.75;;;;;;;;;;5421956;26;20214;-84
2024/04/11 01:12:43;;;;;;;7.55;7.05;;;;;;;;;;5419737;26;20239;-84
2024/04/11 01:15:10;;;;;;;7.30;6.80;;;;;;;;;;5419777;26;20226;-84
2024/04/11 01:17:36;;;;;;;6.90;6.60;;;;;;;;;;5439186;26;20502;-84
2024/04/11 01:20:06;;;;;;;7.55;7.15;;;;;;;;;;5458026;26;20218;-84
2024/04/11 01:22:39;;;;;;;7.32;6.88;;;;;;;;;;5457176;26;20216;-84
2024/04/11 01:25:05;;;;;;;7.60;7.00;;;;;;;;;;5455741;26;20225;-84
2024/04/11 01:27:31;;;;;;;7.40;6.80;;;;;;;;;;5457144;26;20553;-84
2024/04/11 01:29:57;;;;;;;6.90;6.20;;;;;;;;;;5457493;26;20446;-84
2024/04/11 01:32:24;;;;;;;9.15;6.70;;;;;;;;;;5457180;26;20226;-87
2024/04/11 01:34:56;;;;;;;6.80;6.20;;;;;;;;;;5456865;26;20560;-84
2024/04/11 01:37:22;;;;;;;6.90;6.40;;;;;;;;;;5455410;26;20669;-83
2024/04/11 01:39:48;;;;;;;6.40;6.10;;;;;;;;;;5453651;26;20228;-84
2024/04/11 01:42:14;;;;;;;8.50;6.10;;;;;;;;;;5421142;26;20226;-84
2024/04/11 01:44:40;;;;;;;7.40;6.77;;;;;;;;;;5420284;26;20501;-84
2024/04/11 01:47:06;;;;;;;7.03;6.37;;;;;;;;;;5419327;26;20554;-84
2024/04/11 01:49:32;;;;;;;6.75;6.05;;;;;;;;;;5421021;26;20560;-84
2024/04/11 01:51:58;;;;;;;7.32;6.00;;;;;;;;;;5421230;26;20227;-84
2024/04/11 01:54:24;;;;;;;5.88;5.57;;;;;;;;;;5418385;26;20224;-84
2024/04/11 01:56:50;;;;;;;6.78;5.90;;;;;;;;;;5420920;26;20255;-84
2024/04/11 01:59:16;;;;;;;6.93;6.30;;;;;;;;;;5421000;26;20223;-84
2024/04/11 02:01:42;;;;;;;6.85;6.18;;;;;;;;;;5420734;26;20250;-84
2024/04/11 02:04:09;;;;;;;6.43;6.00;;;;;;;;;;5421282;26;20219;-84
2024/04/11 02:06:39;;;;;;;7.00;6.22;;;;;;;;;;5420395;26;20311;-84
2024/04/11 02:09:09;;;;;;;6.07;5.72;;;;;;;;;;5419123;26;20278;-84
2024/04/11 02:11:35;;;;;;;7.35;6.85;;;;;;;;;;5420378;26;20222;-84
2024/04/11 02:14:01;;;;;;;7.27;6.77;;;;;;;;;;5420870;26;20618;-84
2024/04/11 02:16:34;;;;;;;6.78;6.35;;;;;;;;;;5419257;26;20476;-85
2024/04/11 02:19:03;;;;;;;6.80;6.30;;;;;;;;;;5418714;26;20341;-84
2024/04/11 02:21:29;;;;;;;7.03;6.05;;;;;;;;;;5420515;26;20231;-84
2024/04/11 02:23:55;;;;;;;8.10;6.30;;;;;;;;;;5420608;26;20215;-84
2024/04/11 02:26:22;;;;;;;7.32;6.70;;;;;;;;;;5418783;26;20512;-84
2024/04/11 02:28:48;;;;;;;6.40;6.00;;;;;;;;;;5420458;26;20289;-84
2024/04/11 02:31:14;;;;;;;7.30;6.63;;;;;;;;;;5418867;26;20250;-84
2024/04/11 02:33:41;;;;;;;7.38;6.40;;;;;;;;;;5418615;26;21071;-84
2024/04/11 02:36:08;;;;;;;6.50;6.10;;;;;;;;;;5418771;26;20226;-84
2024/04/11 02:38:34;;;;;;;6.30;6.00;;;;;;;;;;5418167;26;20235;-84
2024/04/11 02:41:00;;;;;;;6.80;5.60;;;;;;;;;;5420958;26;20327;-85
2024/04/11 02:43:26;;;;;;;6.93;6.20;;;;;;;;;;5420330;26;20440;-84
2024/04/11 02:45:57;;;;;;;6.90;6.40;;;;;;;;;;5420270;26;20351;-86
2024/04/11 02:48:26;;;;;;;6.03;5.68;;;;;;;;;;5420185;26;20279;-85
2024/04/11 02:50:52;;;;;;;6.15;5.72;;;;;;;;;;5420236;26;20266;-84
2024/04/11 02:53:18;;;;;;;7.13;5.93;;;;;;;;;;5420037;26;20222;-84
2024/04/11 02:55:44;;;;;;;7.73;6.10;;;;;;;;;;5417981;26;20230;-84
2024/04/11 02:58:10;;;;;;;9.35;5.60;;;;;;;;;;5418765;26;21000;-83
2024/04/11 03:00:37;;;;;;;5.30;5.00;;;;;;;;;;5419750;26;20214;-85
2024/04/11 03:03:03;;;;;;;5.82;5.43;;;;;;;;;;5418778;26;20574;-84
2024/04/11 03:05:29;;;;;;;5.93;5.53;;;;;;;;;;5419753;26;20223;-89
2024/04/11 03:07:55;;;;;;;5.80;5.40;;;;;;;;;;5419698;26;20820;-84
2024/04/11 03:10:22;;;;;;;5.97;5.57;;;;;;;;;;5419890;26;20590;-84
2024/04/11 03:12:48;;;;;;;6.10;5.50;;;;;;;;;;5388639;26;20508;-84
2024/04/11 03:15:14;;;;;;;6.37;5.87;;;;;;;;;;5417787;26;20261;-84
2024/04/11 03:17:40;;;;;;;5.70;5.20;;;;;;;;;;5411374;26;20462;-84
2024/04/11 03:20:06;;;;;;;6.03;5.40;;;;;;;;;;5382720;26;20488;-84
2024/04/11 03:22:32;;;;;;;6.30;5.80;;;;;;;;;;5383714;26;20219;-85
2024/04/11 03:24:58;;;;;;;5.70;5.30;;;;;;;;;;5384162;26;20281;-84
2024/04/11 03:27:24;;;;;;;5.70;5.30;;;;;;;;;;5382596;26;20502;-84
2024/04/11 03:29:50;;;;;;;6.13;5.63;;;;;;;;;;5383851;26;20227;-84
2024/04/11 03:32:16;;;;;;;5.53;5.13;;;;;;;;;;5381651;26;20228;-84
2024/04/11 03:34:42;;;;;;;5.63;5.10;;;;;;;;;;5383633;26;20442;-83
2024/04/11 03:38:22;;;;;;;4.90;4.60;;;;;;;;;;5499270;25;20553;-85
2024/04/11 03:40:58;;;;;;;5.17;4.80;;;;;;;;;;5473663;26;20366;-84
2024/04/11 03:43:24;;;;;;;5.65;5.25;;;;;;;;;;5473980;26;20448;-84
2024/04/11 03:45:50;;;;;;;6.35;5.88;;;;;;;;;;5473256;26;20598;-84
2024/04/11 03:48:16;;;;;;;4.93;4.63;;;;;;;;;;5473911;26;20229;-85
2024/04/11 03:50:42;;;;;;;6.47;5.70;;;;;;;;;;5473172;26;20447;-85
2024/04/11 03:53:08;;;;;;;5.20;4.90;;;;;;;;;;5445160;26;20448;-85
2024/04/11 03:55:41;;;;;;;5.57;5.17;;;;;;;;;;5436580;26;20276;-86
2024/04/11 03:58:07;;;;;;;5.53;5.22;;;;;;;;;;5471097;26;20487;-85
2024/04/11 04:00:34;;;;;;;5.30;4.82;;;;;;;;;;5473375;26;20566;-86
2024/04/11 04:03:00;;;;;;;5.30;4.90;;;;;;;;;;5448549;26;20333;-85
2024/04/11 04:05:26;;;;;;;5.47;5.00;;;;;;;;;;5428794;26;20235;-85
2024/04/11 04:07:52;;;;;;;5.35;5.10;;;;;;;;;;5370304;26;20461;-84
2024/04/11 04:10:20;;;;;;;5.22;4.80;;;;;;;;;;5370803;26;20291;-85
2024/04/11 04:12:46;;;;;;;5.50;5.05;;;;;;;;;;5419386;26;20315;-86
2024/04/11 04:15:13;;;;;;;7.53;5.15;;;;;;;;;;5435391;26;20265;-85
2024/04/11 04:17:38;;;;;;;6.80;4.83;;;;;;;;;;5434914;26;20671;-85
2024/04/11 04:20:09;;;;;;;5.27;4.87;;;;;;;;;;5435751;26;20920;-86
2024/04/11 04:22:35;;;;;;;6.82;5.43;;;;;;;;;;5435925;26;20464;-86
2024/04/11 04:25:03;;;;;;;7.90;5.93;;;;;;;;;;5436209;26;20649;-85
2024/04/11 04:27:31;;;;;;;6.88;6.22;;;;;;;;;;5435253;26;20440;-85
2024/04/11 04:29:57;;;;;;;5.45;4.95;;;;;;;;;;5436875;26;20226;-85
2024/04/11 04:32:23;;;;;;;5.70;5.20;;;;;;;;;;5436847;26;20264;-85
2024/04/11 04:34:49;;;;;;;5.93;5.30;;;;;;;;;;5436613;26;20918;-86
2024/04/11 04:37:17;;;;;;;5.90;5.03;;;;;;;;;;5436252;26;20514;-85
2024/04/11 04:39:44;;;;;;;5.00;4.70;;;;;;;;;;5434513;26;20486;-86
2024/04/11 04:42:12;;;;;;;5.80;5.40;;;;;;;;;;5440969;26;20234;-85
2024/04/11 04:44:40;;;;;;;5.50;5.10;;;;;;;;;;5436594;26;20219;-86
2024/04/11 04:47:15;;;;;;;5.15;4.80;;;;;;;;;;5434715;26;20613;-86
2024/04/11 04:49:42;;;;;;;8.52;5.10;;;;;;;;;;5420359;26;20226;-86
2024/04/11 04:52:08;;;;;;;8.98;5.40;;;;;;;;;;5419389;26;20227;-85
2024/04/11 04:54:34;;;;;;;5.80;4.80;;;;;;;;;;5418938;26;20411;-85
2024/04/11 04:57:00;;;;;;;5.75;5.25;;;;;;;;;;5420585;26;20231;-84
2024/04/11 04:59:26;;;;;;;10.13;5.60;;;;;;;;;;5420769;26;20273;-84
2024/04/11 05:01:53;;;;;;;7.47;5.30;;;;;;;;;;5420925;26;20304;-84
2024/04/11 05:04:20;;;;;;;11.27;5.55;;;;;;;;;;5420499;26;20326;-82
2024/04/11 05:06:49;;;;;;;8.63;5.18;;;;;;;;;;5420189;26;20230;-83
2024/04/11 05:09:15;;;;;;;7.20;5.05;;;;;;;;;;5420510;26;20226;-83
2024/04/11 05:11:44;;;;;;;5.10;4.80;;;;;;;;;;5420315;26;20303;-83
2024/04/11 05:14:10;;;;;;;7.80;5.13;;;;;;;;;;5456793;26;20459;-82
2024/04/11 05:16:36;;;;;;;5.43;4.90;;;;;;;;;;5453237;26;20654;-82
2024/04/11 05:19:04;;;;;;;5.38;4.72;;;;;;;;;;5452612;26;20290;-81
2024/04/11 05:21:30;;;;;;;6.65;6.03;;;;;;;;;;5456108;26;20218;-82
2024/04/11 05:23:56;;;;;;;6.50;5.88;;;;;;;;;;5456095;26;20276;-81
2024/04/11 05:26:25;;;;;;;5.85;5.40;;;;;;;;;;5456383;26;20325;-82
2024/04/11 05:28:52;;;;;;;6.78;5.00;;;;;;;;;;5421351;26;20230;-82
2024/04/11 05:31:18;;;;;;;5.47;4.97;;;;;;;;;;5419761;26;20222;-82
2024/04/11 05:33:44;;;;;;;7.15;5.15;;;;;;;;;;5413977;26;20340;-82
2024/04/11 05:36:17;;;;;;;8.23;5.70;;;;;;;;;;5419226;26;20281;-82
2024/04/11 05:38:44;;;;;;;5.90;5.50;;;;;;;;;;5419389;26;20265;-82
2024/04/11 05:41:11;;;;;;;5.50;5.10;;;;;;;;;;5419541;26;20223;-82
2024/04/11 05:43:43;;;;;;;6.80;5.50;;;;;;;;;;5418917;26;20273;-82
2024/04/11 05:46:19;;;;;;;5.38;4.88;;;;;;;;;;5419033;26;20262;-82
2024/04/11 05:48:45;;;;;;;8.98;5.22;;;;;;;;;;5419142;26;20670;-82
2024/04/11 05:51:11;;;;;;;5.40;4.75;;;;;;;;;;5419242;26;20388;-82
2024/04/11 05:53:38;;;;;;;5.20;4.90;;;;;;;;;;5419270;26;20214;-82
2024/04/11 05:56:05;;;;;;;5.45;5.10;;;;;;;;;;5418598;26;20513;-82
2024/04/11 05:58:31;;;;;;;6.50;5.32;;;;;;;;;;5429648;26;20213;-82
2024/04/11 06:01:00;;;;;;;5.22;4.80;;;;;;;;;;5453472;26;20614;-82
2024/04/11 06:03:28;;;;;;;5.40;5.00;;;;;;;;;;5455148;26;20218;-82
2024/04/11 06:05:54;;;;;;;5.72;5.13;;;;;;;;;;5454582;26;20222;-82
2024/04/11 06:08:22;;;;;;;5.57;5.03;;;;;;;;;;5455101;26;20281;-83
2024/04/11 06:10:48;;;;;;;6.65;5.22;;;;;;;;;;5454501;26;20229;-82
2024/04/11 06:13:14;;;;;;;6.07;5.47;;;;;;;;;;5454530;26;20326;-82
2024/04/11 06:15:42;;;;;;;5.50;5.20;;;;;;;;;;5454825;26;20229;-82
2024/04/11 06:18:09;;;;;;;5.60;5.20;;;;;;;;;;5454582;26;20500;-82
2024/04/11 06:20:36;;;;;;;6.80;6.18;;;;;;;;;;5454808;26;20867;-82
2024/04/11 06:23:08;;;;;;;5.80;5.40;;;;;;;;;;5454636;26;20253;-82
2024/04/11 06:25:35;;;;;;;10.82;5.28;;;;;;;;;;5454936;26;20833;-82
2024/04/11 06:28:01;;;;;;;6.35;5.05;;;;;;;;;;5454212;26;20222;-82
2024/04/11 06:30:27;;;;;;;5.87;5.33;;;;;;;;;;5454643;26;20322;-82
2024/04/11 06:32:57;;;;;;;7.23;5.47;;;;;;;;;;5454490;26;20432;-82
2024/04/11 06:35:24;;;;;;;5.33;4.77;;;;;;;;;;5454919;26;20531;-82
2024/04/11 06:37:51;;;;;;;5.60;5.00;;;;;;;;;;5454227;26;20527;-82
2024/04/11 06:40:17;;;;;;;6.70;5.40;;;;;;;;;;5454334;26;20823;-83
2024/04/11 06:42:50;;;;;;;5.10;4.80;;;;;;;;;;5453869;26;20483;-84
2024/04/11 06:45:25;;;;;;;6.43;5.00;;;;;;;;;;5454212;26;20451;-82
2024/04/11 06:47:52;;;;;;;5.60;5.10;;;;;;;;;;5454368;26;20427;-83
2024/04/11 06:50:20;;;;;;;6.30;5.57;;;;;;;;;;5404972;26;20474;-83
2024/04/11 06:52:46;;;;;;;5.97;5.47;;;;;;;;;;5382336;26;20340;-84
2024/04/11 06:55:14;;;;;;;12.17;5.73;;;;;;;;;;5382611;26;20454;-83
2024/04/11 06:57:40;;;;;;;6.50;5.30;;;;;;;;;;5382939;26;20446;-82
2024/04/11 07:00:14;;;;;;;5.83;5.33;;;;;;;;;;5382521;26;20557;-82
2024/04/11 07:02:48;;;;;;;9.07;5.40;;;;;;;;;;5383376;26;20446;-82
2024/04/11 07:05:16;;;;;;;5.80;5.30;;;;;;;;;;5383056;26;20490;-82
2024/04/11 07:07:45;;;;;;;7.00;5.20;;;;;;;;;;5382937;26;20466;-82
2024/04/11 07:10:24;;;;;;;10.13;5.20;;;;;;;;;;5382728;26;20509;-82
2024/04/11 07:12:50;;;;;;;5.50;5.07;;;;;;;;;;5382003;26;20497;-83
2024/04/11 07:15:18;;;;;;;5.93;5.43;;;;;;;;;;5382920;26;20557;-82
2024/04/11 07:17:56;;;;;;;6.03;5.50;;;;;;;;;;5384159;26;20454;-82
2024/04/11 07:20:25;;;;;;;6.00;5.03;;;;;;;;;;5403162;26;20472;-82
2024/04/11 07:22:54;;;;;;;8.40;4.90;;;;;;;;;;5417946;26;20449;-83
2024/04/11 07:25:20;;;;;;;7.30;5.20;;;;;;;;;;5390342;26;20627;-83
2024/04/11 07:27:46;;;;;;;6.83;4.90;;;;;;;;;;5380542;26;20486;-83
2024/04/11 07:30:12;;;;;;;6.23;5.53;;;;;;;;;;5382352;26;20450;-83
2024/04/11 07:32:40;;;;;;;8.20;5.50;;;;;;;;;;5382290;26;20441;-82
2024/04/11 07:35:06;;;;;;;6.43;5.27;;;;;;;;;;5381935;26;20449;-82
2024/04/11 07:37:32;;;;;;;5.90;5.40;;;;;;;;;;5387165;26;20476;-83
2024/04/11 07:40:00;;;;;;;5.50;4.90;;;;;;;;;;5417547;26;20444;-82
2024/04/11 07:42:47;;;;;;;7.30;5.20;;;;;;;;;;5417573;26;21040;-82
2024/04/11 07:45:17;;;;;;;6.53;4.60;;;;;;;;;;5417200;26;20457;-82
2024/04/11 07:47:44;;;;;;;5.77;5.13;;;;;;;;;;5417810;26;20504;-82
2024/04/11 07:50:11;;;;;;;5.97;5.37;;;;;;;;;;5417205;26;20460;-83
2024/04/11 07:52:37;;;;;;;5.67;5.10;;;;;;;;;;5416843;26;20512;-83
2024/04/11 07:55:04;;;;;;;7.13;5.20;;;;;;;;;;5417524;26;20510;-82
2024/04/11 07:57:30;;;;;;;7.27;5.50;;;;;;;;;;5417233;26;20798;-82
2024/04/11 08:00:00;;;;;;;9.60;5.20;;;;;;;;;;5416908;26;20804;-83
2024/04/11 08:02:26;;;;;;;9.30;4.70;;;;;;;;;;5417058;26;20425;-83
2024/04/11 08:04:52;;;;;;;5.97;4.77;;;;;;;;;;5416346;26;20465;-82
2024/04/11 08:07:18;;;;;;;7.33;4.70;;;;;;;;;;5416510;26;20453;-82
2024/04/11 08:09:44;;;;;;;7.50;5.03;;;;;;;;;;5417341;26;20561;-82
2024/04/11 08:12:10;;;;;;;7.73;4.70;;;;;;;;;;5416503;26;21078;-83
2024/04/11 08:14:37;;;;;;;5.97;4.60;;;;;;;;;;5416951;26;20445;-83
2024/04/11 08:17:04;;;;;;;5.00;4.60;;;;;;;;;;5416700;26;20440;-83
2024/04/11 08:19:30;;;;;;;6.53;4.70;;;;;;;;;;5416874;26;20964;-83
2024/04/11 08:21:56;;;;;;;6.40;4.53;;;;;;;;;;5415804;26;20496;-83
2024/04/11 08:24:22;;;;;;;6.30;4.50;;;;;;;;;;5418862;26;20448;-83
2024/04/11 08:26:48;;;;;;;6.10;4.07;;;;;;;;;;5420326;26;20477;-82
2024/04/11 08:29:14;;;;;;;5.60;5.13;;;;;;;;;;5420076;26;20582;-82
2024/04/11 08:31:40;;;;;;;7.13;4.30;;;;;;;;;;5420072;26;20425;-83
2024/04/11 08:34:06;;;;;;;6.60;4.87;;;;;;;;;;5419917;26;20539;-83
2024/04/11 08:36:32;;;;;;;5.50;4.43;;;;;;;;;;5419239;26;21046;-83
2024/04/11 08:38:58;;;;;;;5.60;4.80;;;;;;;;;;5419649;26;20919;-83
2024/04/11 08:41:25;;;;;;;5.20;4.70;;;;;;;;;;5419825;26;20436;-83
2024/04/11 08:43:51;;;;;;;4.60;4.20;;;;;;;;;;5419450;26;20448;-83
2024/04/11 08:46:17;;;;;;;9.57;4.47;;;;;;;;;;5419948;26;20975;-82
2024/04/11 08:48:43;;;;;;;7.10;4.50;;;;;;;;;;5419616;26;20478;-83
2024/04/11 08:51:09;;;;;;;7.80;4.63;;;;;;;;;;5419136;26;20554;-83
2024/04/11 08:53:41;;;;;;;5.10;3.87;;;;;;;;;;5419617;26;20448;-83
2024/04/11 08:56:09;;;;;;;6.07;4.30;;;;;;;;;;5419140;26;20444;-83
2024/04/11 08:58:41;;;;;;;8.57;4.53;;;;;;;;;;5419693;26;20445;-83
2024/04/11 09:01:10;;;;;;;7.70;4.50;;;;;;;;;;5417771;26;21024;-84
2024/04/11 09:03:40;;;;;;;5.90;4.50;;;;;;;;;;5420348;26;20507;-84
2024/04/11 09:06:08;;;;;;;4.40;4.00;;;;;;;;;;5419301;26;20469;-83
2024/04/11 09:08:34;;;;;;;10.63;4.53;;;;;;;;;;5419033;26;20492;-83
2024/04/11 09:11:00;;;;;;;5.23;4.20;;;;;;;;;;5418911;26;20425;-83
2024/04/11 09:13:26;;;;;;;4.87;4.47;;;;;;;;;;5419289;26;20409;-83
2024/04/11 09:15:59;;;;;;;6.70;5.07;;;;;;;;;;5419106;26;20503;-84
2024/04/11 09:18:27;;;;;;;5.67;4.47;;;;;;;;;;5419268;26;20440;-83
2024/04/11 09:21:04;;;;;;;7.90;4.53;;;;;;;;;;5422604;26;20425;-84
2024/04/11 09:23:34;;;;;;;9.30;5.07;;;;;;;;;;5419218;26;20421;-83
2024/04/11 09:26:00;;;;;;;4.90;4.50;;;;;;;;;;5417078;26;20457;-83
2024/04/11 09:28:28;;;;;;;6.40;5.30;;;;;;;;;;5418682;26;20469;-84
2024/04/11 09:30:55;;;;;;;7.33;4.50;;;;;;;;;;5418474;26;20495;-84
2024/04/11 09:33:22;;;;;;;9.10;4.70;;;;;;;;;;5418938;26;20420;-84
2024/04/11 09:35:53;;;;;;;6.60;4.30;;;;;;;;;;5418563;26;20469;-83
2024/04/11 09:38:21;;;;;;;6.63;3.80;;;;;;;;;;5418848;26;20952;-84
2024/04/11 09:40:50;;;;;;;6.90;4.30;;;;;;;;;;5418820;26;20421;-83
2024/04/11 09:43:17;;;;;;;4.50;4.10;;;;;;;;;;5418646;26;20449;-84
2024/04/11 09:45:50;;;;;;;4.10;3.80;;;;;;;;;;5418516;26;20512;-83
2024/04/11 09:48:18;;;;;;;4.60;3.93;;;;;;;;;;5418516;26;20506;-84
2024/04/11 09:50:48;;;;;;;7.27;3.77;;;;;;;;;;5418709;26;20452;-82
2024/04/11 09:53:26;;;;;;;6.83;4.23;;;;;;;;;;5418073;26;20421;-83
2024/04/11 09:55:52;;;;;;;5.80;3.97;;;;;;;;;;5418476;26;20429;-82
2024/04/11 09:58:20;;;;;;;4.67;4.27;;;;;;;;;;5418467;26;20771;-85
2024/04/11 10:01:04;;;;;;;5.43;4.00;;;;;;;;;;5383064;26;20501;-84
2024/04/11 10:03:30;;;;;;;6.23;4.10;;;;;;;;;;5383267;26;20536;-84
2024/04/11 10:06:00;;;;;;;5.60;3.90;;;;;;;;;;5382625;26;20528;-84
2024/04/11 10:08:39;;;;;;;4.63;3.90;;;;;;;;;;5382767;26;20537;-84
2024/04/11 10:11:10;;;;;;;5.23;4.80;;;;;;;;;;5382595;26;20410;-83
2024/04/11 10:13:40;;;;;;;6.23;5.20;;;;;;;;;;5382847;26;20414;-84
2024/04/11 10:16:22;;;;;;;4.37;4.00;;;;;;;;;;5382735;26;20438;-84
2024/04/11 10:18:54;;;;;;;5.67;3.93;;;;;;;;;;5382619;26;20422;-82
2024/04/11 10:21:30;;;;;;;3.83;3.53;;;;;;;;;;5382636;26;20457;-84
2024/04/11 10:23:56;;;;;;;4.47;4.17;;;;;;;;;;5382655;26;20541;-90
2024/04/11 10:26:32;;;;;;;5.93;4.53;;;;;;;;;;5389182;26;20483;-84
2024/04/11 10:29:00;;;;;;;8.10;4.30;;;;;;;;;;5417969;26;20778;-84
2024/04/11 10:31:26;;;;;;;6.60;4.33;;;;;;;;;;5418485;26;20420;-84
2024/04/11 10:34:10;;;;;;;4.07;3.77;;;;;;;;;;5417837;26;20496;-83
2024/04/11 10:36:36;;;;;;;6.10;4.70;;;;;;;;;;5417230;26;20515;-84
2024/04/11 10:39:08;;;;;;;4.77;4.27;;;;;;;;;;5417607;26;20475;-83
2024/04/11 10:41:34;;;;;;;4.73;4.33;;;;;;;;;;5417897;26;20504;-85
2024/04/11 10:44:03;;;;;;;4.40;4.10;;;;;;;;;;5417405;26;20479;-83
2024/04/11 10:46:30;;;;;;;6.67;4.70;;;;;;;;;;5416892;26;20471;-84
2024/04/11 10:49:12;;;;;;;5.73;5.00;;;;;;;;;;5419279;26;20480;-83
2024/04/11 10:51:38;;;;;;;5.83;4.30;;;;;;;;;;5453919;26;20518;-86
2024/04/11 10:54:09;;;;;;;5.70;4.20;;;;;;;;;;5453312;26;20419;-86
2024/04/11 10:56:43;;;;;;;6.57;4.27;;;;;;;;;;5453803;26;20415;-85
2024/04/11 10:59:17;;;;;;;4.03;3.50;;;;;;;;;;5453431;26;20489;-84
2024/04/11 11:01:47;;;;;;;3.60;3.30;;;;;;;;;;5453718;26;20737;-84
2024/04/11 11:04:15;;;;;;;4.93;3.97;;;;;;;;;;5453430;26;20508;-85
2024/04/11 11:06:54;;;;;;;3.53;3.30;;;;;;;;;;5453518;26;20419;-85
2024/04/11 11:09:20;;;;;;;4.73;4.33;;;;;;;;;;5453385;26;20537;-84
2024/04/11 11:11:46;;;;;;;4.60;4.13;;;;;;;;;;5452883;26;20439;-84
2024/04/11 11:14:17;;;;;;;4.70;4.37;;;;;;;;;;5453104;26;20447;-83
2024/04/11 11:16:44;;;;;;;5.70;4.80;;;;;;;;;;5453362;26;20491;-84
2024/04/11 11:19:14;;;;;;;5.00;4.70;;;;;;;;;;5453474;26;20412;-84
2024/04/11 11:21:42;;;;;;;5.50;5.00;;;;;;;;;;5453101;26;20500;-84
2024/04/11 11:24:13;;;;;;;4.80;4.40;;;;;;;;;;5453509;26;20739;-84
2024/04/11 11:26:43;;;;;;;4.77;4.37;;;;;;;;;;5453375;26;21012;-84
2024/04/11 11:29:10;;;;;;;4.80;4.50;;;;;;;;;;5453206;26;20625;-83
2024/04/11 11:31:40;;;;;;;7.87;5.20;;;;;;;;;;5410291;26;20456;-84
2024/04/11 11:34:09;;;;;;;5.00;4.70;;;;;;;;;;5381985;26;20442;-82
2024/04/11 11:36:45;;;;;;;6.10;5.20;;;;;;;;;;5381604;26;20536;-81
2024/04/11 11:39:17;;;;;;;5.93;5.00;;;;;;;;;;5382183;26;21062;-81
2024/04/11 11:41:47;;;;;;;5.30;5.00;;;;;;;;;;5381649;26;20454;-82
2024/04/11 11:44:18;;;;;;;5.30;4.80;;;;;;;;;;5381829;26;20637;-81
2024/04/11 11:46:49;;;;;;;8.70;5.10;;;;;;;;;;5382204;26;20483;-81
2024/04/11 11:49:17;;;;;;;5.57;5.17;;;;;;;;;;5381786;26;20528;-83
2024/04/11 11:51:44;;;;;;;5.13;4.67;;;;;;;;;;5382048;26;20518;-81
2024/04/11 11:54:13;;;;;;;5.10;4.80;;;;;;;;;;5381542;26;20450;-81
2024/04/11 11:56:39;;;;;;;5.10;4.70;;;;;;;;;;5381703;26;20418;-82
2024/04/11 11:59:05;;;;;;;5.00;4.60;;;;;;;;;;5385211;26;20486;-82
2024/04/11 12:01:41;;;;;;;5.07;4.60;;;;;;;;;;5385115;26;20496;-80
2024/04/11 12:04:10;;;;;;;5.30;4.90;;;;;;;;;;5388332;26;20885;-80
2024/04/11 12:06:37;;;;;;;7.03;5.10;;;;;;;;;;5386678;26;20584;-81
2024/04/11 12:09:21;;;;;;;5.03;4.60;;;;;;;;;;5384585;26;20484;-83
2024/04/11 12:11:54;;;;;;;7.47;4.57;;;;;;;;;;5385067;26;20543;-80
2024/04/11 12:14:28;;;;;;;4.70;4.30;;;;;;;;;;5384624;26;20506;-81
2024/04/11 12:16:56;;;;;;;5.37;4.63;;;;;;;;;;5385283;26;20742;-80
2024/04/11 12:19:28;;;;;;;5.67;4.40;;;;;;;;;;5384886;26;20430;-81
2024/04/11 12:21:54;;;;;;;5.13;4.30;;;;;;;;;;5385356;26;20464;-81
2024/04/11 12:24:21;;;;;;;4.93;4.53;;;;;;;;;;5419701;26;20441;-81
2024/04/11 12:26:49;;;;;;;8.57;4.70;;;;;;;;;;5420620;26;20506;-81
2024/04/11 12:29:18;;;;;;;4.70;4.30;;;;;;;;;;5420649;26;20472;-81
2024/04/11 12:31:44;;;;;;;5.50;5.00;;;;;;;;;;5420424;26;20420;-81
2024/04/11 12:34:10;;;;;;;5.23;4.93;;;;;;;;;;5419839;26;20421;-82
2024/04/11 12:39:32;;;;;;;6.10;5.50;;;;;;;;;;5420282;26;20522;-81
2024/04/11 12:42:00;;;;;;;4.47;4.13;;;;;;;;;;5420211;26;20918;-83
2024/04/11 12:44:26;;;;;;;6.33;4.60;;;;;;;;;;5420113;26;20460;-81
2024/04/11 12:46:53;;;;;;;5.00;4.60;;;;;;;;;;5419785;26;20837;-81
2024/04/11 12:49:25;;;;;;;5.00;4.27;;;;;;;;;;5420069;26;20424;-82
2024/04/11 12:52:00;;;;;;;5.90;4.20;;;;;;;;;;5419949;26;20417;-82
2024/04/11 12:54:26;;;;;;;11.33;4.00;;;;;;;;;;5419134;26;20971;-81
2024/04/11 12:57:04;;;;;;;5.33;4.67;;;;;;;;;;5419563;26;20476;-82
2024/04/11 12:59:30;;;;;;;7.17;3.87;;;;;;;;;;5420137;26;20551;-81
2024/04/11 13:02:00;;;;;;;6.20;4.97;;;;;;;;;;5419881;26;20468;-81
2024/04/11 13:04:32;;;;;;;5.03;4.53;;;;;;;;;;5384003;26;20546;-81
2024/04/11 13:07:10;;;;;;;5.63;5.03;;;;;;;;;;5384629;26;20503;-81
2024/04/11 13:09:53;;;;;;;5.83;5.40;;;;;;;;;;5383464;26;20434;-81
2024/04/11 13:12:19;;;;;;;5.20;4.70;;;;;;;;;;5386265;26;20422;-81
2024/04/11 13:17:41;;;;;;;5.47;4.97;;;;;;;;;;5419168;26;20758;-81
2024/04/11 13:20:14;;;;;;;5.53;5.10;;;;;;;;;;5418942;26;20457;-83
2024/04/11 13:22:48;;;;;;;5.27;4.80;;;;;;;;;;5419273;26;20479;-81
2024/04/11 13:25:20;;;;;;;5.13;4.83;;;;;;;;;;5419196;26;20433;-81
2024/04/11 13:27:47;;;;;;;4.83;4.50;;;;;;;;;;5419315;26;20774;-81
2024/04/11 13:30:13;;;;;;;15.33;5.37;;;;;;;;;;5419065;26;20472;-82
2024/04/11 13:32:40;;;;;;;4.80;4.50;;;;;;;;;;5419656;26;21036;-82
2024/04/11 13:35:13;;;;;;;5.87;5.37;;;;;;;;;;5419451;26;20503;-82
2024/04/11 13:37:42;;;;;;;5.37;4.90;;;;;;;;;;5419046;26;20516;-82
2024/04/11 13:42:55;;;;;;;6.00;4.80;;;;;;;;;;5418720;26;20425;-83
2024/04/11 13:45:24;;;;;;;6.20;5.60;;;;;;;;;;5418553;26;20428;-82
2024/04/11 13:47:59;;;;;;;5.00;4.60;;;;;;;;;;5418227;26;20448;-82
2024/04/11 13:50:44;;;;;;;5.07;4.67;;;;;;;;;;5418725;26;20444;-82
2024/04/11 13:53:13;;;;;;;4.23;3.93;;;;;;;;;;5418348;26;20496;-83
2024/04/11 13:55:43;;;;;;;4.57;4.33;;;;;;;;;;5418713;26;20460;-83
2024/04/11 13:58:12;;;;;;;4.07;3.70;;;;;;;;;;5418341;26;20421;-84
2024/04/11 14:00:39;;;;;;;6.40;4.10;;;;;;;;;;5418553;26;20444;-83
2024/04/11 14:03:23;;;;;;;8.37;4.47;;;;;;;;;;5418496;26;20556;-83
2024/04/11 14:05:59;;;;;;;4.50;4.10;;;;;;;;;;5418040;26;20827;-83
2024/04/11 14:08:30;;;;;;;5.47;3.90;;;;;;;;;;5419112;26;21078;-82
2024/04/11 14:10:56;;;;;;;3.63;3.43;;;;;;;;;;5418562;26;20972;-82
2024/04/11 14:13:23;;;;;;;4.00;3.60;;;;;;;;;;5418288;26;20472;-82
2024/04/11 14:15:52;;;;;;;3.97;3.77;;;;;;;;;;5418323;26;20441;-83
2024/04/11 14:18:18;;;;;;;4.33;4.03;;;;;;;;;;5418387;26;20436;-82
2024/04/11 14:20:50;;;;;;;4.00;3.80;;;;;;;;;;5417441;26;20817;-82
2024/04/11 14:23:44;;;;;;;3.70;3.50;;;;;;;;;;5418867;26;20834;-82
2024/04/11 14:26:05;;;;;;;4.30;3.97;;;;;;;;;;5418659;26;20440;-82
2024/04/11 14:28:34;;;;;;;5.60;3.93;;;;;;;;;;5418470;26;20421;-82
2024/04/11 14:31:08;;;;;;;4.70;4.30;;;;;;;;;;5418721;26;20437;-82
2024/04/11 14:36:28;;;;;;;4.93;4.63;;;;;;;;;;5418181;26;21052;-82
2024/04/11 14:39:05;;;;;;;4.13;3.83;;;;;;;;;;5418414;26;20420;-83
2024/04/11 14:41:31;;;;;;;3.97;3.63;;;;;;;;;;5418244;26;20698;-82
2024/04/11 14:43:59;;;;;;;4.10;3.80;;;;;;;;;;5418175;26;20504;-82
2024/04/11 14:46:26;;;;;;;4.70;3.67;;;;;;;;;;5417787;26;20453;-82
2024/04/11 14:49:00;;;;;;;4.17;3.60;;;;;;;;;;5418308;26;20790;-82
2024/04/11 14:51:26;;;;;;;4.13;3.77;;;;;;;;;;5417339;26;20546;-83
2024/04/11 14:53:55;;;;;;;4.60;3.80;;;;;;;;;;5417311;26;20550;-82
2024/04/11 14:56:40;;;;;;;4.77;4.37;;;;;;;;;;5418080;26;20501;-82
2024/04/11 14:59:06;;;;;;;5.20;3.10;;;;;;;;;;5417976;26;20566;-82
2024/04/11 15:01:32;;;;;;;5.37;3.70;;;;;;;;;;5418183;26;20885;-82
2024/04/11 15:03:59;;;;;;;4.63;3.40;;;;;;;;;;5419498;26;20413;-82